Flight Track Log - Related Links

Times and Time Zones

All times are in EDT time to prevent confusion due to time zone crossing. See the N915ST flight status page for this flight to view local times or setup timezone preferences in your user account.

Time Position Orientation Groundspeed Altitude Reporting Facility
EDT Latitude Longitude Course Direction KTS MPH feet Rate Location/Type
Fri 02:02:18 PM 30.4803 -91.0783 125° Southeast 186 214 37,000  Level Houston Center
Fri 02:03:20 PM 30.4500 -91.0333 128° Southeast 197 227 5,200 -14,208 Descending Houston Center
Fri 02:04:23 PM 30.4167 -90.9814 127° Southeast 200 230 7,400 2,256 Climbing Houston Center
Fri 02:05:25 PM 30.3914 -90.9069 111° Southeast 209 241 9,900 2,177 Climbing Houston Center
Fri 02:06:27 PM 30.3689 -90.8431 112° Southeast 209 241 11,900 1,839 Climbing Houston Center
Fri 02:07:00 PM 30.3310 -90.5477 125° Southeast  Level Estimated
Fri 02:07:29 PM 30.3453 -90.7786 113° Southeast 212 244 13,700  Level Houston Center
Fri 02:08:31 PM 30.3217 -90.7111 112° Southeast 221 254 15,200 1,488 Climbing Houston Center
Fri 02:09:34 PM 30.2878 -90.6475 122° Southeast 226 260 16,800 1,584 Climbing Houston Center
Fri 02:10:36 PM 30.2367 -90.5797 131° Southeast 231 266 18,500 1,452 Climbing Houston Center
Fri 02:11:38 PM 30.1969 -90.5211 128° Southeast 231 266 19,800 1,210 Climbing Houston Center
Fri 02:12:40 PM 30.1525 -90.4608 130° Southeast 240 276 21,000 1,210 Climbing Houston Center
Fri 02:13:42 PM 30.1083 -90.3969 129° Southeast 249 287 22,300 1,248 Climbing Houston Center
Fri 02:14:45 PM 30.0636 -90.3361 130° Southeast 251 289 23,600 1,296 Climbing Houston Center
Fri 02:15:47 PM 30.0131 -90.2636 129° Southeast 247 284 25,000 968 Climbing Houston Center
Fri 02:16:49 PM 29.9692 -90.2019 129° Southeast 248 285 25,600 677 Climbing Houston Center
Fri 02:17:51 PM 29.9219 -90.1353 129° Southeast 267 307 26,400 871 Climbing Houston Center
Fri 02:18:53 PM 29.8744 -90.0700 130° Southeast 269 310 27,400 816 Climbing Houston Center
Fri 02:19:56 PM 29.8281 -90.0042 129° Southeast 268 308 28,100 768 Climbing Houston Center
Fri 02:20:58 PM 29.7703 -89.9233 129° Southeast 271 312 29,000 823 Climbing Houston Center
Fri 02:22:00 PM 29.7203 -89.8542 130° Southeast 279 321 29,800 774 Climbing Houston Center
Fri 02:23:02 PM 29.6714 -89.7853 129° Southeast 279 321 30,600 677 Climbing Houston Center
Fri 02:24:04 PM 29.6211 -89.7169 130° Southeast 279 321 31,200 672 Climbing Houston Center
Fri 02:25:07 PM 29.5728 -89.6494 129° Southeast 278 320 32,000 672 Climbing Houston Center
Fri 02:26:09 PM 29.5142 -89.5653 129° Southeast 278 320 32,600 532 Climbing Houston Center
Fri 02:27:11 PM 29.4639 -89.4958 130° Southeast 280 322 33,100 532 Climbing Houston Center
Fri 02:28:13 PM 29.4136 -89.4264 130° Southeast 281 323 33,700 532 Climbing Houston Center
Fri 02:29:15 PM 29.3631 -89.3581 130° Southeast 282 325 34,200 432 Climbing Houston Center
Fri 02:30:18 PM 29.3131 -89.2878 129° Southeast 282 325 34,600 480 Climbing Houston Center
Fri 02:31:20 PM 29.2508 -89.2039 130° Southeast 287 330 35,200 532 Climbing Houston Center
Fri 02:32:22 PM 29.1997 -89.1328 129° Southeast 287 330 35,700 484 Climbing Houston Center
Fri 02:33:24 PM 29.1472 -89.0600 130° Southeast 294 338 36,200 484 Climbing Houston Center
Fri 02:34:26 PM 29.0947 -88.9906 131° Southeast 290 334 36,700 336 Climbing Houston Center
Fri 02:35:29 PM 29.0439 -88.9189 129° Southeast 290 334 36,900 96 Climbing Houston Center
Fri 02:36:31 PM 28.9908 -88.8472 130° Southeast 292 336 36,900  Level Houston Center
Fri 02:37:33 PM 28.9231 -88.7542 130° Southeast 315 362 36,900  Level Houston Center
Fri 02:38:35 PM 28.8747 -88.6678 123° Southeast 325 374 36,900  Level Houston Center
Fri 02:39:37 PM 28.8475 -88.5703 108° East 325 374 36,900  Level Houston Center
Fri 02:40:40 PM 28.8192 -88.4686 108° East 331 381 36,900  Level Houston Center
Fri 02:41:42 PM 28.7906 -88.3664 108° East 336 387 36,900  Level Houston Center
Fri 02:42:44 PM 28.7558 -88.2411 108° East 341 392 36,900  Level Houston Center
Fri 02:43:46 PM 28.7272 -88.1372 107° East 344 396 36,900  Level Houston Center
Fri 02:44:48 PM 28.6961 -88.0261 108° East 346 398 36,900  Level Houston Center
Fri 02:45:50 PM 28.6658 -87.9222 108° East 347 399 36,900  Level Houston Center
Fri 02:46:53 PM 28.6375 -87.8183 107° East 347 399 36,900  Level Houston Center
Fri 02:47:55 PM 28.6064 -87.7128 109° East 348 400 36,900  Level Houston Center
Fri 02:48:57 PM 28.5781 -87.6089 107° East 348 400 36,900 48 Level Houston Center
Fri 02:49:59 PM 28.5411 -87.4836 109° East 348 400 37,000 48 Climbing Houston Center
Fri 02:51:01 PM 28.5114 -87.3806 108° East 347 399 37,000  Level Houston Center
Fri 02:52:04 PM 28.4828 -87.2733 107° East 351 404 37,000  Level Houston Center
Fri 02:54:04 PM 28.4203 -87.0653 109° East 352 405 37,000  Level Jacksonville Center
Fri 02:55:04 PM 28.3903 -86.9600 108° East 352 405 37,000  Level Jacksonville Center
Fri 02:56:04 PM 28.3622 -86.8553 107° East 352 405 37,000 450 Level Jacksonville Center
Fri 02:57:04 PM 28.3258 -86.7478 111° Southeast 345 397 37,900 900 Climbing Jacksonville Center
Fri 02:58:04 PM 28.3014 -86.6550 107° East 336 387 38,800 550 Climbing Jacksonville Center
Fri 02:59:04 PM 28.2708 -86.5594 110° East 323 372 39,000 100 Climbing Jacksonville Center
Fri 03:00:04 PM 28.2464 -86.4667 107° East 315 362 39,000  Level Jacksonville Center
Fri 03:01:04 PM 28.2158 -86.3667 109° East 318 366 39,000  Level Jacksonville Center
Fri 03:02:04 PM 28.1850 -86.2667 109° East 331 381 39,000  Level Jacksonville Center
Fri 03:03:04 PM 28.1564 -86.1669 108° East 331 381 39,000  Level Jacksonville Center
Fri 03:04:04 PM 28.1275 -86.0650 108° East 331 381 39,000 100 Level Jacksonville Center
Fri 03:05:04 PM 28.0947 -85.9556 109° East 343 395 39,200 500 Climbing Jacksonville Center
Fri 03:06:04 PM 28.0636 -85.8583 110° East 334 384 40,000 600 Climbing Jacksonville Center
Fri 03:07:04 PM 28.0364 -85.7681 109° East 328 377 40,400 500 Climbing Jacksonville Center
Fri 03:08:04 PM 28.0094 -85.6733 108° East 317 365 41,000 300 Climbing Jacksonville Center
Fri 03:09:04 PM 27.9819 -85.5856 110° East 310 357 41,000  Level Jacksonville Center
Fri 03:11:24 PM 27.9147 -85.3594 109° East 307 353 41,000  Level Miami Center
Fri 03:12:25 PM 27.8878 -85.2678 108° East 308 354 41,000  Level Miami Center
Fri 03:13:27 PM 27.8700 -85.1708 102° East 316 364 41,000  Level Miami Center
Fri 03:14:29 PM 27.8542 -85.0731 100° East 316 364 41,000  Level Miami Center
Fri 03:15:31 PM 27.8244 -84.9789 110° East 318 366 41,000  Level Miami Center
Fri 03:16:33 PM 27.7864 -84.8833 114° Southeast 326 375 41,000  Level Miami Center
Fri 03:17:35 PM 27.7519 -84.7708 109° East 326 375 41,000  Level Miami Center
Fri 03:18:36 PM 27.7161 -84.6750 113° Southeast 326 375 41,000  Level Miami Center
Fri 03:19:38 PM 27.6847 -84.5803 110° East 326 375 41,000  Level Miami Center
Fri 03:20:40 PM 27.6528 -84.4831 110° East 327 376 41,000  Level Miami Center
Fri 03:21:42 PM 27.6186 -84.3878 112° Southeast 327 376 41,000  Level Miami Center
Fri 03:22:44 PM 27.5861 -84.2917 111° Southeast 327 376 41,000  Level Miami Center
Fri 03:23:46 PM 27.5528 -84.1956 111° Southeast 327 376 41,000  Level Miami Center
Fri 03:24:48 PM 27.5133 -84.0803 111° Southeast 328 377 41,000  Level Miami Center
Fri 03:25:50 PM 27.4803 -83.9833 111° Southeast 329 379 41,000  Level Miami Center
Fri 03:26:52 PM 27.4464 -83.8875 112° Southeast 329 379 41,000  Level Miami Center
Fri 03:27:53 PM 27.4100 -83.7906 113° Southeast 331 381 41,000  Level Miami Center
Fri 03:28:55 PM 27.3789 -83.6939 110° East 333 383 41,000  Level Miami Center
Fri 03:29:57 PM 27.3433 -83.5961 112° Southeast 333 383 41,000  Level Miami Center
Fri 03:31:00 PM 27.3022 -83.4781 111° Southeast 335 386 41,000  Level Miami Center
Fri 03:32:01 PM 27.2681 -83.3786 111° Southeast 338 389 41,000  Level Miami Center
Fri 03:33:03 PM 27.2319 -83.2803 112° Southeast 338 389 41,000  Level Miami Center
Fri 03:34:05 PM 27.1969 -83.1814 112° Southeast 339 390 41,000  Level Miami Center
Fri 03:35:07 PM 27.1619 -83.0819 112° Southeast 340 391 41,000  Level Miami Center
Fri 03:36:09 PM 27.1256 -82.9817 112° Southeast 343 395 41,000  Level Miami Center
Fri 03:37:11 PM 27.0839 -82.8636 112° Southeast 343 395 41,000  Level Miami Center
Fri 03:38:13 PM 27.0483 -82.7656 112° Southeast 342 394 41,000  Level Miami Center
Fri 03:39:15 PM 27.0117 -82.6669 113° Southeast 342 394 41,000  Level Miami Center
Fri 03:40:17 PM 26.9761 -82.5689 112° Southeast 342 394 41,000  Level Miami Center
Fri 03:41:19 PM 26.9417 -82.4717 112° Southeast 341 392 41,000  Level Miami Center
Fri 03:42:21 PM 26.8997 -82.3542 112° Southeast 340 391 41,000  Level Miami Center
Fri 03:43:23 PM 26.8628 -82.2572 113° Southeast 340 391 41,000  Level Miami Center
Fri 03:44:25 PM 26.8283 -82.1606 112° Southeast 338 389 41,000  Level Miami Center
Fri 03:45:27 PM 26.7933 -82.0650 112° Southeast 335 386 41,000  Level Miami Center
Fri 03:46:29 PM 26.7578 -81.9692 113° Southeast 335 386 41,000  Level Miami Center
Fri 03:47:31 PM 26.7239 -81.8733 112° Southeast 333 383 41,000  Level Miami Center
Fri 03:48:33 PM 26.6822 -81.7578 112° Southeast 334 384 41,000  Level Miami Center
Fri 03:49:35 PM 26.6461 -81.6614 113° Southeast 336 387 41,000  Level Miami Center
Fri 03:50:37 PM 26.6081 -81.5594 113° Southeast 337 388 41,000  Level Miami Center
Fri 03:51:39 PM 26.5700 -81.4611 113° Southeast 330 380 41,000  Level Miami Center
Fri 03:52:41 PM 26.5328 -81.3594 112° Southeast 335 386 41,000  Level Miami Center
Fri 03:53:43 PM 26.4961 -81.2603 112° Southeast 335 386 41,000  Level Miami Center
Fri 03:54:45 PM 26.4725 -81.1728 107° East 329 379 41,000 -48 Level Miami Center
Fri 03:55:47 PM 26.4561 -81.0722 100° East 329 379 40,900 -387 Descending Miami Center
Fri 03:56:49 PM 26.4367 -80.9486 100° East 336 387 40,200 -774 Descending Miami Center
Fri 03:57:51 PM 26.4319 -80.8411 93° East 350 403 39,300 -968 Descending Miami Center
Fri 03:58:53 PM 26.4419 -80.7253 84° East 349 402 38,200 -1,065 Descending Miami Center
Fri 03:59:55 PM 26.4522 -80.6172 84° East 350 403 37,100 -1,065 Descending Miami Center
Fri 04:00:57 PM 26.4544 -80.5103 89° East 348 400 36,000 -1,016 Descending Miami Center
Fri 04:01:59 PM 26.4511 -80.3950 92° East 345 397 35,000 -484 Descending Miami Center
Fri 04:03:01 PM 26.4131 -80.2947 113° Southeast 352 405 35,000  Level Miami Center
Fri 04:04:03 PM 26.3656 -80.2000 119° Southeast 326 375 35,000  Level Miami Center
Fri 04:05:05 PM 26.3203 -80.1119 120° Southeast 326 375 35,000 -48 Level Miami Center
Fri 04:06:07 PM 26.2764 -80.0261 120° Southeast 319 367 34,900 -387 Descending Miami Center
Fri 04:07:09 PM 26.2300 -79.9403 121° Southeast 330 380 34,200 -1,016 Descending Miami Center
Fri 04:08:11 PM 26.1817 -79.8464 120° Southeast 344 396 32,800 -1,403 Descending Miami Center
Fri 04:09:13 PM 26.1308 -79.7478 120° Southeast 361 415 31,300 -1,403 Descending Miami Center
Fri 04:10:15 PM 26.0797 -79.6492 120° Southeast 366 421 29,900 -1,113 Descending Miami Center
Fri 04:11:17 PM 26.0186 -79.5339 121° Southeast 361 415 29,000 -726 Descending Miami Center
Fri 04:12:19 PM 25.9725 -79.4453 120° Southeast 334 384 28,400 -1,113 Descending Miami Center
Fri 04:13:21 PM 25.9250 -79.3539 120° Southeast 340 391 26,700 -1,694 Descending Miami Center
Fri 04:14:23 PM 25.8744 -79.2600 121° Southeast 349 402 24,900 -1,355 Descending Miami Center
Fri 04:15:25 PM 25.8261 -79.1672 120° Southeast 349 402 23,900 -919 Descending Miami Center
Fri 04:16:27 PM 25.7775 -79.0778 121° Southeast 343 395 23,000 -871 Descending Miami Center
Fri 04:17:29 PM 25.7311 -78.9883 120° Southeast 339 390 22,100 -919 Descending Miami Center
Fri 04:18:31 PM 25.6731 -78.8800 121° Southeast 334 384 21,100 -927 Descending Miami Center
Fri 04:19:32 PM 25.6258 -78.7903 120° Southeast 335 386 20,200 -878 Descending Miami Center
Fri 04:20:34 PM 25.5783 -78.7014 121° Southeast 337 388 19,300 -677 Descending Miami Center
Fri 04:21:36 PM 25.5269 -78.6053 121° Southeast 328 377 18,800 -823 Descending Miami Center
Fri 04:22:38 PM 25.4806 -78.5200 121° Southeast 324 373 17,600 -1,258 Descending Miami Center
Fri 04:23:40 PM 25.4364 -78.4328 119° Southeast 326 375 16,200 -1,500 Descending Miami Center
Fri 04:24:42 PM 25.3892 -78.3461 121° Southeast 304 350 14,500 -1,500 Descending Miami Center
Fri 04:25:44 PM 25.3458 -78.2669 121° Southeast 304 350 13,100 -1,452 Descending Miami Center
Fri 04:26:46 PM 25.3219 -78.1822 107° East 292 336 11,500 -1,548 Descending Miami Center

Login

Don't have an account? Register now (free) for customized features, flight alerts, and more!